createdAt,value
2023-04-02T00:00:18.119Z,1.60
2023-04-02T00:03:01.062Z,1.98
2023-04-02T00:05:51.739Z,1.48
2023-04-02T00:08:27.147Z,1.60
2023-04-02T00:10:58.208Z,1.80
2023-04-02T00:13:37.385Z,1.88
2023-04-02T00:16:09.183Z,1.60
2023-04-02T00:18:43.924Z,1.65
2023-04-02T00:21:20.787Z,1.98
2023-04-02T00:23:51.496Z,2.00
2023-04-02T00:26:25.637Z,1.90
2023-04-02T00:28:54.738Z,1.80
2023-04-02T00:31:24.439Z,1.77
2023-04-02T00:33:54.596Z,1.55
2023-04-02T00:36:25.849Z,1.70
2023-04-02T00:38:59.096Z,1.80
2023-04-02T00:41:31.104Z,1.85
2023-04-02T00:44:01.887Z,1.70
2023-04-02T00:46:35.424Z,1.73
2023-04-02T00:49:11.409Z,1.77
2023-04-02T00:54:17.451Z,1.67
2023-04-02T00:56:48.112Z,1.60
2023-04-02T00:59:26.382Z,1.63
2023-04-02T01:02:02.287Z,1.73
2023-04-02T01:07:05.991Z,1.90
2023-04-02T01:10:01.169Z,1.80
2023-04-02T01:12:43.258Z,1.73
2023-04-02T01:15:19.554Z,2.05
2023-04-02T01:18:20.807Z,1.85
2023-04-02T01:21:29.018Z,1.75
2023-04-02T01:24:06.368Z,1.80
2023-04-02T01:26:49.372Z,1.80
2023-04-02T01:29:23.305Z,1.85
2023-04-02T01:31:54.064Z,1.63
2023-04-02T01:34:27.193Z,1.67
2023-04-02T01:37:15.529Z,1.65
2023-04-02T01:39:55.340Z,1.60
2023-04-02T01:42:31.193Z,1.77
2023-04-02T01:45:06.001Z,1.80
2023-04-02T01:47:35.079Z,1.70
2023-04-02T01:50:06.317Z,1.80
2023-04-02T01:52:42.066Z,1.83
2023-04-02T01:55:16.314Z,1.90
2023-04-02T01:57:48.244Z,2.10
2023-04-02T02:00:20.604Z,1.73
2023-04-02T02:02:52.108Z,1.80
2023-04-02T02:05:26.258Z,1.92
2023-04-02T02:07:57.613Z,1.73
2023-04-02T02:10:29.366Z,1.80
2023-04-02T02:13:01.232Z,2.00
2023-04-02T02:15:35.065Z,2.17
2023-04-02T02:18:07.431Z,2.40
2023-04-02T02:20:37.370Z,2.30
2023-04-02T02:23:07.067Z,2.45
2023-04-02T02:25:38.026Z,2.20
2023-04-02T02:28:11.066Z,2.13
2023-04-02T02:30:45.933Z,2.30
2023-04-02T02:33:21.777Z,2.60
2023-04-02T02:35:56.888Z,2.08
2023-04-02T02:38:46.642Z,2.50
2023-04-02T02:41:20.713Z,2.60
2023-04-02T02:43:59.269Z,2.28
2023-04-02T02:46:32.963Z,2.30
2023-04-02T02:49:05.501Z,2.38
2023-04-02T02:51:43.402Z,2.70
2023-04-02T02:54:14.133Z,2.38
2023-04-02T02:56:48.752Z,2.20
2023-04-02T02:59:18.482Z,2.40
2023-04-02T03:01:49.556Z,2.28
2023-04-02T03:04:23.434Z,2.13
2023-04-02T03:06:54.446Z,2.70
2023-04-02T03:09:35.122Z,2.17
2023-04-02T03:12:10.032Z,2.67
2023-04-02T03:14:45.329Z,2.40
2023-04-02T03:17:22.651Z,2.13
2023-04-02T03:19:56.290Z,2.30
2023-04-02T03:22:33.126Z,2.17
2023-04-02T03:25:06.657Z,2.53
2023-04-02T03:27:39.958Z,2.40
2023-04-02T03:30:31.700Z,2.60
2023-04-02T03:33:05.443Z,2.75
2023-04-02T03:35:41.639Z,2.80
2023-04-02T03:40:46.043Z,2.85
2023-04-02T03:43:22.120Z,2.50
2023-04-02T03:45:56.522Z,2.72
2023-04-02T03:48:31.705Z,2.60
2023-04-02T03:51:05.254Z,2.55
2023-04-02T03:53:34.987Z,2.42
2023-04-02T03:56:04.773Z,2.42
2023-04-02T03:58:40.789Z,2.60
2023-04-02T04:01:18.400Z,2.58
2023-04-02T04:03:52.065Z,2.70
2023-04-02T04:06:25.711Z,2.80
2023-04-02T04:08:57.974Z,3.03
2023-04-02T04:11:31.737Z,3.47
2023-04-02T04:14:05.470Z,3.25
2023-04-02T04:16:43.749Z,3.03
2023-04-02T04:19:20.331Z,3.00
2023-04-02T04:21:49.783Z,2.90
2023-04-02T04:24:22.796Z,3.28
2023-04-02T04:26:56.602Z,3.00
2023-04-02T04:29:41.512Z,3.35
2023-04-02T04:32:19.414Z,2.90
2023-04-02T04:34:54.346Z,2.90
2023-04-02T04:37:29.946Z,2.60
2023-04-02T04:40:03.844Z,2.90
2023-04-02T04:42:36.170Z,3.13
2023-04-02T04:45:15.128Z,3.08
2023-04-02T04:47:50.181Z,2.70
2023-04-02T04:50:30.584Z,3.20
2023-04-02T04:53:07.347Z,2.80
2023-04-02T04:55:43.712Z,3.40
2023-04-02T04:58:22.332Z,3.50
2023-04-02T05:01:02.398Z,3.53
2023-04-02T05:03:36.078Z,3.38
2023-04-02T05:06:12.677Z,3.20
2023-04-02T05:08:46.642Z,3.40
2023-04-02T05:11:23.500Z,3.10
2023-04-02T05:13:55.373Z,3.75
2023-04-02T05:16:30.209Z,3.45
2023-04-02T05:19:07.514Z,3.80
2023-04-02T05:21:42.421Z,4.18
2023-04-02T05:24:45.628Z,3.92
2023-04-02T05:27:30.613Z,4.13
2023-04-02T05:30:06.439Z,3.80
2023-04-02T05:32:42.095Z,4.07
2023-04-02T05:35:17.472Z,4.93
2023-04-02T05:37:48.537Z,4.30
2023-04-02T05:40:25.328Z,4.03
2023-04-02T05:42:56.449Z,4.30
2023-04-02T05:45:32.111Z,4.50
2023-04-02T05:48:03.792Z,4.30
2023-04-02T05:50:38.218Z,4.57
2023-04-02T05:53:15.786Z,4.20
2023-04-02T05:55:52.496Z,3.88
2023-04-02T05:58:36.081Z,3.80
2023-04-02T06:01:21.683Z,3.75
2023-04-02T06:04:00.645Z,4.22
2023-04-02T06:06:50.768Z,3.90
2023-04-02T06:09:29.597Z,3.90
2023-04-02T06:12:09.177Z,3.80
2023-04-02T06:14:38.252Z,3.50
2023-04-02T06:17:07.525Z,4.07
2023-04-02T06:19:39.686Z,3.83
2023-04-02T06:22:19.984Z,4.15
2023-04-02T06:24:56.226Z,4.15
2023-04-02T06:27:27.308Z,4.45
2023-04-02T06:30:00.968Z,5.15
2023-04-02T06:32:30.085Z,5.30
2023-04-02T06:34:59.273Z,6.18
2023-04-02T06:37:33.559Z,4.95
2023-04-02T06:40:05.774Z,5.30
2023-04-02T06:42:38.468Z,5.25
2023-04-02T06:45:15.567Z,5.88
2023-04-02T06:47:48.074Z,6.38
2023-04-02T06:50:24.257Z,7.05
2023-04-02T06:52:54.991Z,6.53
2023-04-02T06:55:38.439Z,7.00
2023-04-02T06:58:07.607Z,6.93
2023-04-02T07:00:38.251Z,7.43
2023-04-02T07:03:08.945Z,6.78
2023-04-02T07:05:38.860Z,6.47
2023-04-02T07:08:08.959Z,5.88
2023-04-02T07:10:39.600Z,6.22
2023-04-02T07:13:10.068Z,6.05
2023-04-02T07:15:39.609Z,6.47
2023-04-02T07:18:10.538Z,6.00
2023-04-02T07:20:39.661Z,5.53
2023-04-02T07:23:09.135Z,5.95
2023-04-02T07:25:39.845Z,5.47
2023-04-02T07:28:08.943Z,5.18
2023-04-02T07:30:38.209Z,5.40
2023-04-02T07:33:07.506Z,5.88
2023-04-02T07:35:36.869Z,5.40
2023-04-02T07:38:06.384Z,5.13
2023-04-02T07:40:35.662Z,5.40
2023-04-02T07:43:07.304Z,6.10
2023-04-02T07:45:37.002Z,7.00
2023-04-02T07:48:07.809Z,6.03
2023-04-02T07:50:37.491Z,6.25
2023-04-02T07:53:07.927Z,5.78
2023-04-02T07:55:37.465Z,6.63
2023-04-02T07:58:08.188Z,5.93
2023-04-02T08:00:37.453Z,5.28
2023-04-02T08:03:06.630Z,5.22
2023-04-02T08:05:35.869Z,4.90
2023-04-02T08:08:05.021Z,4.60
2023-04-02T08:10:34.042Z,4.22
2023-04-02T08:13:03.095Z,4.15
2023-04-02T08:15:34.093Z,4.63
2023-04-02T08:18:03.316Z,3.95
2023-04-02T08:20:32.559Z,4.50
2023-04-02T08:23:02.159Z,4.50
2023-04-02T08:25:31.193Z,3.78
2023-04-02T08:28:02.222Z,4.25
2023-04-02T08:30:33.154Z,4.07
2023-04-02T08:33:02.144Z,4.00
2023-04-02T08:35:31.365Z,4.00
2023-04-02T08:38:00.437Z,4.57
2023-04-02T08:40:34.217Z,5.03
2023-04-02T08:43:31.809Z,5.32
2023-04-02T08:46:11.599Z,5.85
2023-04-02T08:48:45.246Z,5.72
2023-04-02T08:51:24.155Z,4.93
2023-04-02T08:53:55.526Z,5.97
2023-04-02T08:56:31.793Z,5.95
2023-04-02T08:59:04.620Z,5.35
2023-04-02T09:01:48.140Z,6.28
2023-04-02T09:04:19.663Z,5.65
2023-04-02T09:06:50.460Z,5.35
2023-04-02T09:09:20.020Z,5.32
2023-04-02T09:11:55.333Z,4.95
2023-04-02T09:14:31.403Z,5.28
2023-04-02T09:17:05.060Z,5.43
2023-04-02T09:19:37.507Z,5.03
2023-04-02T09:22:17.529Z,4.97
2023-04-02T09:24:46.591Z,4.45
2023-04-02T09:27:20.400Z,4.43
2023-04-02T09:29:52.708Z,4.80
2023-04-02T09:32:49.248Z,4.60
2023-04-02T09:35:39.048Z,4.75
2023-04-02T09:38:33.772Z,4.97
2023-04-02T09:41:04.446Z,4.82
2023-04-02T09:43:34.861Z,4.63
2023-04-02T09:46:05.875Z,4.93
2023-04-02T09:48:44.689Z,4.10
2023-04-02T09:51:16.206Z,4.05
2023-04-02T09:53:47.083Z,3.97
2023-04-02T09:56:18.688Z,3.63
2023-04-02T09:59:03.253Z,3.63
2023-04-02T10:01:34.313Z,3.75
2023-04-02T10:04:07.422Z,3.60
2023-04-02T10:06:37.152Z,3.83
2023-04-02T10:09:22.448Z,3.50
2023-04-02T10:11:53.052Z,3.30
2023-04-02T10:14:25.378Z,3.78
2023-04-02T10:16:58.236Z,3.70
2023-04-02T10:19:33.304Z,3.75
2023-04-02T10:22:07.062Z,3.78
2023-04-02T10:24:36.298Z,4.55
2023-04-02T10:27:19.248Z,4.65
2023-04-02T10:30:10.333Z,3.92
2023-04-02T10:32:45.612Z,4.53
2023-04-02T10:35:26.168Z,4.57
2023-04-02T10:38:07.981Z,4.50
2023-04-02T10:40:41.259Z,5.32
2023-04-02T10:43:37.379Z,5.18
2023-04-02T10:46:12.166Z,5.10
2023-04-02T10:48:53.321Z,5.40
2023-04-02T10:51:33.967Z,5.45
2023-04-02T10:54:14.366Z,5.68
2023-04-02T10:56:50.947Z,4.60
2023-04-02T10:59:24.376Z,4.93
2023-04-02T11:01:57.634Z,5.22
2023-04-02T11:04:32.481Z,5.15
2023-04-02T11:07:14.365Z,5.65
2023-04-02T11:09:48.188Z,4.93
2023-04-02T11:12:24.622Z,5.63
2023-04-02T11:17:25.030Z,4.65
2023-04-02T11:19:54.862Z,4.95
2023-04-02T11:22:26.722Z,5.18
2023-04-02T11:24:57.396Z,4.93
2023-04-02T11:27:31.279Z,4.40
2023-04-02T11:30:07.512Z,5.00
2023-04-02T11:32:40.101Z,4.40
2023-04-02T11:35:29.176Z,4.65
2023-04-02T11:38:06.508Z,5.15
2023-04-02T11:40:50.636Z,5.03
2023-04-02T11:44:00.818Z,4.80
2023-04-02T11:46:46.376Z,4.90
2023-04-02T11:50:05.021Z,5.15
2023-04-02T11:52:38.084Z,4.47
2023-04-02T11:55:28.007Z,4.78
2023-04-02T11:58:31.311Z,4.55
2023-04-02T12:01:35.435Z,4.47
2023-04-02T12:04:36.754Z,4.22
2023-04-02T12:07:35.544Z,4.60
2023-04-02T12:10:07.106Z,4.38
2023-04-02T12:12:39.925Z,4.70
2023-04-02T12:15:30.061Z,4.25
2023-04-02T12:18:07.598Z,4.30
2023-04-02T12:20:37.340Z,5.10
2023-04-02T12:23:06.938Z,4.75
2023-04-02T12:25:41.601Z,4.93
2023-04-02T12:28:21.475Z,4.93
2023-04-02T12:30:52.022Z,4.30
2023-04-02T12:33:34.495Z,4.65
2023-04-02T12:36:05.423Z,4.65
2023-04-02T12:38:40.421Z,4.50
2023-04-02T12:41:25.084Z,4.65
2023-04-02T12:44:03.266Z,4.95
2023-04-02T12:46:34.191Z,4.72
2023-04-02T12:49:07.584Z,4.35
2023-04-02T12:51:38.260Z,5.30
2023-04-02T12:54:08.013Z,5.38
2023-04-02T12:56:37.431Z,5.00
2023-04-02T12:59:24.702Z,5.55
2023-04-02T13:02:04.654Z,5.18
2023-04-02T13:04:33.906Z,6.55
2023-04-02T13:07:02.993Z,5.80
2023-04-02T13:09:35.967Z,5.50
2023-04-02T13:12:05.363Z,5.55
2023-04-02T13:14:36.047Z,5.47
2023-04-02T13:17:05.036Z,5.13
2023-04-02T13:19:34.858Z,4.88
2023-04-02T13:22:05.302Z,4.53
2023-04-02T13:24:34.804Z,5.10
2023-04-02T13:27:04.711Z,4.30
2023-04-02T13:29:36.536Z,4.90
2023-04-02T13:32:07.760Z,5.28
2023-04-02T13:34:36.750Z,4.60
2023-04-02T13:37:05.697Z,4.40
2023-04-02T13:39:34.651Z,4.57
2023-04-02T13:42:05.498Z,4.25
2023-04-02T13:44:40.456Z,4.43
2023-04-02T13:47:15.134Z,4.68
2023-04-02T13:49:44.080Z,4.78
2023-04-02T13:52:17.290Z,5.03
2023-04-02T13:54:53.784Z,4.60
2023-04-02T13:59:53.001Z,4.70
2023-04-02T14:02:26.095Z,5.35
2023-04-02T14:05:03.508Z,5.05
2023-04-02T14:07:52.492Z,5.18
2023-04-02T14:10:31.250Z,5.28
2023-04-02T14:13:13.213Z,5.13
2023-04-02T14:15:56.343Z,5.55
2023-04-02T14:18:42.129Z,5.65
2023-04-02T14:21:26.249Z,5.32
2023-04-02T14:24:08.236Z,5.20
2023-04-02T14:26:46.378Z,5.53
2023-04-02T14:29:23.583Z,5.65
2023-04-02T14:32:01.991Z,4.80
2023-04-02T14:34:37.252Z,5.15
2023-04-02T14:37:18.001Z,5.05
2023-04-02T14:39:56.384Z,5.15
2023-04-02T14:42:33.160Z,5.63
2023-04-02T14:45:07.509Z,5.03
2023-04-02T14:47:44.444Z,5.22
2023-04-02T14:50:17.748Z,6.20
2023-04-02T14:52:52.487Z,5.60
2023-04-02T14:55:28.445Z,5.28
2023-04-02T14:58:01.220Z,5.38
2023-04-02T15:00:37.054Z,6.05
2023-04-02T15:03:15.480Z,5.60
2023-04-02T15:05:47.783Z,4.88
2023-04-02T15:08:22.806Z,4.85
2023-04-02T15:11:05.702Z,4.60
2023-04-02T15:13:39.301Z,5.00
2023-04-02T15:16:14.437Z,4.55
2023-04-02T15:18:45.182Z,4.70
2023-04-02T15:21:43.380Z,4.32
2023-04-02T15:24:27.500Z,4.13
2023-04-02T15:27:09.313Z,4.18
2023-04-02T15:29:48.866Z,4.30
2023-04-02T15:32:30.758Z,3.80
2023-04-02T15:35:10.907Z,3.10
2023-04-02T15:37:46.180Z,3.35
2023-04-02T15:40:39.420Z,3.05
2023-04-02T15:43:20.507Z,2.90
2023-04-02T15:46:07.169Z,2.67
2023-04-02T15:49:08.611Z,2.75
2023-04-02T15:51:52.516Z,2.85
2023-04-02T15:54:38.468Z,2.50
2023-04-02T15:57:20.676Z,2.60
2023-04-02T16:00:03.695Z,2.60
2023-04-02T16:02:53.479Z,2.80
2023-04-02T16:05:37.533Z,2.72
2023-04-02T16:08:30.097Z,3.05
2023-04-02T16:10:59.357Z,3.00
2023-04-02T16:13:32.434Z,3.08
2023-04-02T16:16:07.183Z,3.05
2023-04-02T16:18:45.599Z,3.40
2023-04-02T16:21:20.573Z,3.30
2023-04-02T16:23:51.981Z,3.53
2023-04-02T16:26:37.997Z,3.30
2023-04-02T16:29:23.051Z,3.63
2023-04-02T16:31:59.300Z,2.97
2023-04-02T16:34:38.811Z,3.30
2023-04-02T16:37:17.359Z,3.38
2023-04-02T16:39:55.401Z,3.70
2023-04-02T16:42:35.847Z,3.50
2023-04-02T16:45:25.167Z,3.67
2023-04-02T16:48:06.860Z,3.80
2023-04-02T16:50:45.692Z,3.80
2023-04-02T16:53:27.668Z,3.92
2023-04-02T16:56:17.661Z,3.95
2023-04-02T16:58:55.596Z,3.75
2023-04-02T17:01:35.891Z,3.88
2023-04-02T17:04:18.474Z,3.95
2023-04-02T17:06:56.223Z,3.65
2023-04-02T17:09:32.909Z,3.67
2023-04-02T17:12:15.751Z,3.80
2023-04-02T17:14:51.979Z,3.90
2023-04-02T17:17:23.534Z,3.50
2023-04-02T17:19:57.350Z,3.50
2023-04-02T17:22:26.581Z,3.72
2023-04-02T17:24:58.874Z,4.00
2023-04-02T17:27:33.635Z,3.70
2023-04-02T17:30:13.107Z,3.72
2023-04-02T17:32:42.120Z,3.92
2023-04-02T17:35:19.830Z,3.70
2023-04-02T17:37:55.806Z,3.55
2023-04-02T17:40:32.141Z,3.67
2023-04-02T17:43:11.271Z,3.30
2023-04-02T17:45:47.590Z,3.40
2023-04-02T17:48:22.812Z,3.97
2023-04-02T17:51:09.822Z,3.38
2023-04-02T17:54:04.376Z,3.85
2023-04-02T17:56:56.902Z,4.15
2023-04-02T17:59:48.168Z,4.45
2023-04-02T18:02:30.828Z,3.55
2023-04-02T18:05:08.803Z,3.38
2023-04-02T18:07:46.629Z,3.17
2023-04-02T18:10:21.892Z,3.95
2023-04-02T18:12:57.962Z,3.90
2023-04-02T18:15:56.347Z,4.20
2023-04-02T18:18:54.186Z,3.97
2023-04-02T18:21:32.366Z,3.40
2023-04-02T18:24:15.479Z,3.38
2023-04-02T18:26:54.527Z,3.75
2023-04-02T18:29:31.861Z,3.72
2023-04-02T18:32:20.833Z,3.15
2023-04-02T18:35:02.803Z,3.10
2023-04-02T18:37:38.428Z,3.83
2023-04-02T18:43:01.562Z,4.38
2023-04-02T18:45:39.451Z,4.07
2023-04-02T18:48:20.365Z,3.47
2023-04-02T18:50:50.256Z,3.88
2023-04-02T18:53:22.724Z,3.30
2023-04-02T18:55:56.561Z,3.22
2023-04-02T18:58:29.686Z,3.92
2023-04-02T19:01:00.585Z,3.30
2023-04-02T19:03:38.727Z,3.47
2023-04-02T19:06:10.939Z,3.30
2023-04-02T19:08:45.384Z,3.22
2023-04-02T19:11:17.826Z,3.30
2023-04-02T19:13:49.145Z,3.22
2023-04-02T19:16:45.642Z,3.03
2023-04-02T19:19:21.973Z,3.10
2023-04-02T19:22:09.816Z,3.75
2023-04-02T19:24:55.858Z,3.58
2023-04-02T19:30:07.418Z,3.10
2023-04-02T19:32:45.313Z,4.00
2023-04-02T19:35:22.687Z,3.30
2023-04-02T19:38:00.512Z,3.50
2023-04-02T19:40:36.818Z,3.85
2023-04-02T19:43:05.927Z,4.05
2023-04-02T19:45:39.654Z,3.63
2023-04-02T19:48:14.298Z,3.90
2023-04-02T19:50:45.361Z,3.38
2023-04-02T19:53:15.109Z,3.60
2023-04-02T19:55:44.523Z,3.10
2023-04-02T19:58:23.318Z,3.30
2023-04-02T20:00:52.393Z,3.47
2023-04-02T20:03:21.388Z,4.45
2023-04-02T20:05:52.313Z,3.80
2023-04-02T20:08:21.689Z,3.67
2023-04-02T20:10:50.948Z,4.05
2023-04-02T20:13:20.132Z,3.85
2023-04-02T20:15:49.950Z,4.25
2023-04-02T20:18:19.001Z,3.67
2023-04-02T20:20:48.312Z,3.30
2023-04-02T20:23:19.436Z,3.47
2023-04-02T20:25:49.087Z,3.40
2023-04-02T20:28:18.046Z,3.67
2023-04-02T20:30:47.323Z,4.00
2023-04-02T20:33:17.469Z,3.20
2023-04-02T20:35:46.735Z,3.40
2023-04-02T20:38:17.793Z,3.95
2023-04-02T20:40:52.979Z,3.70
2023-04-02T20:43:22.450Z,4.10
2023-04-02T20:45:58.296Z,3.80
2023-04-02T20:50:58.082Z,3.40
2023-04-02T20:53:30.265Z,3.88
2023-04-02T20:56:05.415Z,3.30
2023-04-02T20:58:35.215Z,3.70
2023-04-02T21:01:12.739Z,4.32
2023-04-02T21:03:42.032Z,3.67
2023-04-02T21:06:15.460Z,3.53
2023-04-02T21:08:47.061Z,4.10
2023-04-02T21:11:17.070Z,3.92
2023-04-02T21:13:46.723Z,3.97
2023-04-02T21:16:17.685Z,3.60
2023-04-02T21:18:47.607Z,3.30
2023-04-02T21:21:16.917Z,4.20
2023-04-02T21:23:47.886Z,3.30
2023-04-02T21:26:18.055Z,3.85
2023-04-02T21:28:47.441Z,3.80
2023-04-02T21:31:17.965Z,3.85
2023-04-02T21:33:48.891Z,3.50
2023-04-02T21:36:19.840Z,3.50
2023-04-02T21:38:52.709Z,3.63
2023-04-02T21:41:23.275Z,4.05
2023-04-02T21:43:52.638Z,4.90
2023-04-02T21:46:23.298Z,4.70
2023-04-02T21:48:53.150Z,5.30
2023-04-02T21:51:25.027Z,7.97
2023-04-02T21:53:56.285Z,7.25
2023-04-02T21:56:27.449Z,9.63
2023-04-02T21:58:57.761Z,7.68
2023-04-02T22:01:30.694Z,8.82
2023-04-02T22:04:01.628Z,8.63
2023-04-02T22:06:32.457Z,7.68
2023-04-02T22:09:04.891Z,8.32
2023-04-02T22:11:35.784Z,8.52
2023-04-02T22:14:05.193Z,7.88
2023-04-02T22:16:36.199Z,8.05
2023-04-02T22:19:07.916Z,7.50
2023-04-02T22:21:37.680Z,7.88
2023-04-02T22:24:10.608Z,9.18
2023-04-02T22:26:41.041Z,8.18
2023-04-02T22:29:10.153Z,7.65
2023-04-02T22:31:39.471Z,7.75
2023-04-02T22:34:09.082Z,7.60
2023-04-02T22:36:38.072Z,7.05
2023-04-02T22:39:11.267Z,7.43
2023-04-02T22:41:40.253Z,8.70
2023-04-02T22:44:13.621Z,7.50
2023-04-02T22:46:42.578Z,6.80
2023-04-02T22:49:12.483Z,7.07
2023-04-02T22:51:42.180Z,9.02
2023-04-02T22:54:13.790Z,7.30
2023-04-02T22:56:42.888Z,7.30
2023-04-02T22:59:11.881Z,7.75
2023-04-02T23:01:41.580Z,7.03
2023-04-02T23:04:10.773Z,7.30
2023-04-02T23:06:39.734Z,7.40
2023-04-02T23:09:08.874Z,7.35
2023-04-02T23:11:39.751Z,6.72
2023-04-02T23:14:08.797Z,5.20
2023-04-02T23:16:37.768Z,7.60
2023-04-02T23:19:06.927Z,7.22
2023-04-02T23:21:35.929Z,5.97
2023-04-02T23:24:04.989Z,5.70
2023-04-02T23:26:33.970Z,6.00
2023-04-02T23:29:04.649Z,6.35
2023-04-02T23:31:33.789Z,7.03
2023-04-02T23:34:02.806Z,6.40
2023-04-02T23:36:33.391Z,6.70
2023-04-02T23:39:04.831Z,6.57
2023-04-02T23:41:33.793Z,6.30
2023-04-02T23:44:05.322Z,5.50
2023-04-02T23:46:35.074Z,6.55
2023-04-02T23:49:04.719Z,5.95
2023-04-02T23:51:34.158Z,6.60
2023-04-02T23:54:03.195Z,6.20
2023-04-02T23:56:32.560Z,7.88
2023-04-02T23:59:01.784Z,6.70
